Time;durP1;ratioP1;P1;durP2;ratioP2;P2;SDS_P1;SDS_P2;PMS_P1;PMS_P2;Temp;Humidity;BMP_temperature;BMP_pressure;BME280_temperature;BME280_humidity;BME280_pressure;Samples;Min_cycle;Max_cycle;Signal;HPM_P1;HPM_P2
2022/06/24 00:01:52;;;;;;;;;;;28.00;58.90;;;;;;5155031;27;19910;-69
2022/06/24 00:04:28;;;;;;;;;;;28.00;59.40;;;;;;5155342;27;19998;-69
2022/06/24 00:06:56;;;;;;;;;;;28.00;59.40;;;;;;5154608;27;19995;-69
2022/06/24 00:09:22;;;;;;;;;;;28.00;59.60;;;;;;5155026;27;19910;-69
2022/06/24 00:12:05;;;;;;;;;;;28.00;59.80;;;;;;5154906;27;20436;-69
2022/06/24 00:14:31;;;;;;;;;;;28.00;59.90;;;;;;5154875;27;19903;-69
2022/06/24 00:16:59;;;;;;;;;;;28.00;59.80;;;;;;5155004;27;20398;-69
2022/06/24 00:19:25;;;;;;;;;;;28.00;59.80;;;;;;5154767;27;19903;-69
2022/06/24 00:21:57;;;;;;;;;;;28.00;59.80;;;;;;5154620;27;19903;-68
2022/06/24 00:24:23;;;;;;;;;;;28.00;59.80;;;;;;5155034;27;19907;-69
2022/06/24 00:26:49;;;;;;;;;;;28.00;59.80;;;;;;5154529;27;19960;-69
2022/06/24 00:29:18;;;;;;;;;;;28.00;59.80;;;;;;5154478;27;19903;-69
2022/06/24 00:32:03;;;;;;;;;;;28.00;59.80;;;;;;5154578;27;20323;-69
2022/06/24 00:34:29;;;;;;;;;;;27.90;59.60;;;;;;5154570;27;19921;-69
2022/06/24 00:36:55;;;;;;;;;;;27.90;59.30;;;;;;5154545;27;19903;-68
2022/06/24 00:39:30;;;;;;;;;;;27.90;59.20;;;;;;5154321;27;19911;-68
2022/06/24 00:41:56;;;;;;;;;;;27.90;59.30;;;;;;5154613;27;19950;-68
2022/06/24 00:44:22;;;;;;;;;;;27.90;59.30;;;;;;5154293;27;20377;-69
2022/06/24 00:46:50;;;;;;;;;;;28.00;59.20;;;;;;5154257;27;19911;-69
2022/06/24 00:49:23;;;;;;;;;;;27.90;58.70;;;;;;5154129;27;19903;-68
2022/06/24 00:51:49;;;;;;;;;;;27.90;58.60;;;;;;5154163;27;19939;-69
2022/06/24 00:54:15;;;;;;;;;;;28.00;58.70;;;;;;5154195;27;19945;-69
2022/06/24 00:56:42;;;;;;;;;;;27.90;58.90;;;;;;5154417;27;19903;-69
2022/06/24 00:59:08;;;;;;;;;;;27.90;58.80;;;;;;5154287;27;19947;-69
2022/06/24 01:01:35;;;;;;;;;;;27.80;58.70;;;;;;5154061;27;19914;-68
2022/06/24 01:04:02;;;;;;;;;;;27.80;58.40;;;;;;5153867;27;19913;-68
2022/06/24 01:06:28;;;;;;;;;;;27.80;58.30;;;;;;5153598;27;19915;-68
2022/06/24 01:08:55;;;;;;;;;;;27.80;58.20;;;;;;5154119;27;20254;-68
2022/06/24 01:11:27;;;;;;;;;;;27.90;58.10;;;;;;5153583;27;20043;-68
2022/06/24 01:13:53;;;;;;;;;;;28.00;58.60;;;;;;5153587;27;19948;-68
2022/06/24 01:16:25;;;;;;;;;;;28.00;58.60;;;;;;5153564;27;19903;-68
2022/06/24 01:18:55;;;;;;;;;;;27.90;59.00;;;;;;5153553;27;20359;-68
2022/06/24 01:21:37;;;;;;;;;;;27.90;59.30;;;;;;5153525;27;19910;-68
2022/06/24 01:24:03;;;;;;;;;;;28.00;59.30;;;;;;5153498;27;20498;-68
2022/06/24 01:26:28;;;;;;;;;;;28.00;59.60;;;;;;5153802;27;19999;-68
2022/06/24 01:28:54;;;;;;;;;;;28.00;59.50;;;;;;5153444;27;19903;-68
2022/06/24 01:31:20;;;;;;;;;;;28.00;59.20;;;;;;5153756;27;19903;-68
2022/06/24 01:33:46;;;;;;;;;;;28.00;59.10;;;;;;5152033;27;20200;-68
2022/06/24 01:36:12;;;;;;;;;;;28.00;59.00;;;;;;5153387;27;20351;-68
2022/06/24 01:38:38;;;;;;;;;;;28.10;58.50;;;;;;5153769;27;19993;-68
2022/06/24 01:41:03;;;;;;;;;;;28.10;57.80;;;;;;5153622;27;19907;-67
2022/06/24 01:43:30;;;;;;;;;;;28.10;57.70;;;;;;5151906;27;19910;-68
2022/06/24 01:45:56;;;;;;;;;;;28.10;57.60;;;;;;5153568;27;19903;-68
2022/06/24 01:48:22;;;;;;;;;;;28.00;57.80;;;;;;5153472;27;19947;-68
2022/06/24 01:50:48;;;;;;;;;;;28.00;58.00;;;;;;5153591;27;19914;-68
2022/06/24 01:53:13;;;;;;;;;;;27.90;58.30;;;;;;5151936;27;19907;-68
2022/06/24 01:55:39;;;;;;;;;;;27.90;58.50;;;;;;5153582;27;19907;-68
2022/06/24 01:58:05;;;;;;;;;;;27.90;58.80;;;;;;5153693;27;20353;-68
2022/06/24 02:00:31;;;;;;;;;;;27.80;58.70;;;;;;5156250;27;20359;-68
2022/06/24 02:02:57;;;;;;;;;;;27.80;58.50;;;;;;5157571;27;19903;-68
2022/06/24 02:05:24;;;;;;;;;;;27.80;58.40;;;;;;5157058;27;20361;-68
2022/06/24 02:07:50;;;;;;;;;;;27.80;58.60;;;;;;5157069;27;19915;-68
2022/06/24 02:15:44;;;;;;;;;;;27.70;58.80;;;;;;5157315;27;19910;-68
2022/06/24 02:18:10;;;;;;;;;;;27.60;58.90;;;;;;5156971;27;19919;-68
2022/06/24 02:20:36;;;;;;;;;;;27.60;58.90;;;;;;5156973;27;19910;-68
2022/06/24 02:23:02;;;;;;;;;;;27.60;58.70;;;;;;5157018;27;19906;-68
2022/06/24 02:25:27;;;;;;;;;;;27.60;58.10;;;;;;5157096;27;19903;-68
2022/06/24 02:27:53;;;;;;;;;;;27.80;57.60;;;;;;5156650;27;20251;-67
2022/06/24 02:30:19;;;;;;;;;;;28.00;57.50;;;;;;5156379;27;19949;-68
2022/06/24 02:32:45;;;;;;;;;;;28.00;57.50;;;;;;5156508;27;20009;-68
2022/06/24 02:35:10;;;;;;;;;;;28.00;57.50;;;;;;5156508;27;20014;-68
2022/06/24 02:37:36;;;;;;;;;;;28.10;57.30;;;;;;5156668;27;19903;-68
2022/06/24 02:40:45;;;;;;;;;;;28.20;57.10;;;;;;5156618;27;19998;-68
2022/06/24 02:42:53;;;;;;;;;;;28.10;57.20;;;;;;5156360;27;19914;-68
2022/06/24 02:45:18;;;;;;;;;;;28.10;57.30;;;;;;5156918;27;19903;-68
2022/06/24 02:47:44;;;;;;;;;;;28.00;57.30;;;;;;5156195;27;20439;-67
2022/06/24 02:50:10;;;;;;;;;;;28.00;57.40;;;;;;5156559;27;19995;-68
2022/06/24 02:52:36;;;;;;;;;;;27.90;57.60;;;;;;5155883;27;19903;-68
2022/06/24 02:55:01;;;;;;;;;;;27.90;57.80;;;;;;5157187;27;20267;-67
2022/06/24 02:57:27;;;;;;;;;;;27.90;57.90;;;;;;5156119;27;19902;-68
2022/06/24 02:59:53;;;;;;;;;;;27.80;58.00;;;;;;5156623;27;19930;-68
2022/06/24 03:02:19;;;;;;;;;;;27.60;58.40;;;;;;5156409;27;19907;-68
2022/06/24 03:04:45;;;;;;;;;;;27.60;58.70;;;;;;5156120;27;19907;-68
2022/06/24 03:07:10;;;;;;;;;;;27.50;58.90;;;;;;5156457;27;20395;-68
2022/06/24 03:09:36;;;;;;;;;;;27.40;59.00;;;;;;5156222;27;19910;-68
2022/06/24 03:12:02;;;;;;;;;;;27.40;59.10;;;;;;5154608;27;20006;-68
2022/06/24 03:14:28;;;;;;;;;;;27.40;58.70;;;;;;5156374;27;19926;-68
2022/06/24 03:16:54;;;;;;;;;;;27.40;58.50;;;;;;5156116;27;19918;-68
2022/06/24 03:19:19;;;;;;;;;;;27.40;58.80;;;;;;5156807;27;20022;-68
2022/06/24 03:21:45;;;;;;;;;;;27.50;58.60;;;;;;5156743;27;19903;-68
2022/06/24 03:24:11;;;;;;;;;;;27.50;58.20;;;;;;5156281;27;19910;-68
2022/06/24 03:26:37;;;;;;;;;;;27.50;58.30;;;;;;5156637;27;19911;-68
2022/06/24 03:29:02;;;;;;;;;;;27.40;58.40;;;;;;5156139;27;19950;-68
2022/06/24 03:31:28;;;;;;;;;;;27.40;58.70;;;;;;5156255;27;20189;-68
2022/06/24 03:33:55;;;;;;;;;;;27.30;58.90;;;;;;5156575;27;19925;-67
2022/06/24 03:36:21;;;;;;;;;;;27.30;59.00;;;;;;5156085;27;19903;-68
2022/06/24 03:38:47;;;;;;;;;;;27.30;59.20;;;;;;5157006;27;20203;-68
2022/06/24 03:41:13;;;;;;;;;;;27.20;59.00;;;;;;5156704;27;19903;-68
2022/06/24 03:43:39;;;;;;;;;;;27.20;58.90;;;;;;5156445;27;19903;-68
2022/06/24 03:46:05;;;;;;;;;;;27.30;58.70;;;;;;5155922;27;20359;-68
2022/06/24 03:48:31;;;;;;;;;;;27.30;58.80;;;;;;5155875;27;19907;-68
2022/06/24 03:50:56;;;;;;;;;;;27.20;58.80;;;;;;5155884;27;20243;-68
2022/06/24 03:53:22;;;;;;;;;;;27.20;59.00;;;;;;5156153;27;19902;-68
2022/06/24 03:55:51;;;;;;;;;;;27.20;58.80;;;;;;5155721;27;19903;-68
2022/06/24 03:58:18;;;;;;;;;;;27.20;58.60;;;;;;5156142;27;19903;-68
2022/06/24 04:00:44;;;;;;;;;;;27.30;58.60;;;;;;5155616;27;19914;-68
2022/06/24 04:03:10;;;;;;;;;;;27.30;58.80;;;;;;5155388;27;19989;-68
2022/06/24 04:05:35;;;;;;;;;;;27.30;58.60;;;;;;5155326;27;20371;-68
2022/06/24 04:08:01;;;;;;;;;;;27.30;58.80;;;;;;5155455;27;20347;-68
2022/06/24 04:10:27;;;;;;;;;;;27.50;58.50;;;;;;5155758;27;19998;-68
2022/06/24 04:12:53;;;;;;;;;;;27.50;58.30;;;;;;5155290;27;20003;-68
2022/06/24 04:15:19;;;;;;;;;;;27.50;58.50;;;;;;5155349;27;19903;-68
2022/06/24 04:17:49;;;;;;;;;;;27.60;58.70;;;;;;5156124;27;20339;-68
2022/06/24 04:20:15;;;;;;;;;;;27.70;58.80;;;;;;5155704;27;20010;-68
2022/06/24 04:22:42;;;;;;;;;;;27.70;58.90;;;;;;5155651;27;19903;-68
2022/06/24 04:25:08;;;;;;;;;;;27.80;59.60;;;;;;5155568;27;19903;-68
2022/06/24 04:27:34;;;;;;;;;;;28.00;60.20;;;;;;5155527;27;19915;-68
2022/06/24 04:30:00;;;;;;;;;;;28.10;60.70;;;;;;5155933;27;19902;-68
2022/06/24 04:32:26;;;;;;;;;;;28.30;60.80;;;;;;5155638;27;19910;-68
2022/06/24 04:34:52;;;;;;;;;;;28.30;60.40;;;;;;5155951;27;19903;-68
2022/06/24 04:37:18;;;;;;;;;;;28.30;60.30;;;;;;5155498;27;19910;-68
2022/06/24 04:39:44;;;;;;;;;;;28.40;59.90;;;;;;5155719;27;19906;-68
2022/06/24 04:42:10;;;;;;;;;;;28.60;59.50;;;;;;5155580;27;19955;-68
2022/06/24 04:44:37;;;;;;;;;;;28.70;59.00;;;;;;5155822;27;19907;-68
2022/06/24 04:47:03;;;;;;;;;;;28.90;59.00;;;;;;5155551;27;19922;-69
2022/06/24 04:49:28;;;;;;;;;;;29.10;58.80;;;;;;5156087;27;19903;-69
2022/06/24 04:51:54;;;;;;;;;;;29.20;58.00;;;;;;5155737;27;19918;-68
2022/06/24 04:54:20;;;;;;;;;;;29.30;58.10;;;;;;5155244;27;19909;-68
2022/06/24 04:56:46;;;;;;;;;;;29.50;58.00;;;;;;5155394;27;19903;-69
2022/06/24 04:59:12;;;;;;;;;;;29.80;57.40;;;;;;5155298;27;20366;-68
2022/06/24 05:01:38;;;;;;;;;;;30.00;56.80;;;;;;5155131;27;19903;-68
2022/06/24 05:04:04;;;;;;;;;;;30.40;56.30;;;;;;5155189;27;19911;-68
2022/06/24 05:06:30;;;;;;;;;;;31.20;55.10;;;;;;5154873;27;20022;-68
2022/06/24 05:08:56;;;;;;;;;;;32.30;54.00;;;;;;5155168;27;19903;-69
2022/06/24 05:11:21;;;;;;;;;;;33.20;52.80;;;;;;5155091;27;19910;-69
2022/06/24 05:13:47;;;;;;;;;;;34.10;51.40;;;;;;5154876;27;19914;-69
2022/06/24 05:16:13;;;;;;;;;;;34.40;50.40;;;;;;5155028;27;20308;-69
2022/06/24 05:18:39;;;;;;;;;;;34.30;49.90;;;;;;5154833;27;19959;-69
2022/06/24 05:21:05;;;;;;;;;;;35.00;49.20;;;;;;5154411;27;20062;-69
2022/06/24 05:23:30;;;;;;;;;;;35.90;48.30;;;;;;5154732;27;19910;-69
2022/06/24 05:25:56;;;;;;;;;;;36.90;47.20;;;;;;5154443;27;19903;-69
2022/06/24 05:28:22;;;;;;;;;;;37.50;46.50;;;;;;5155239;27;20361;-69
2022/06/24 05:30:54;;;;;;;;;;;38.10;45.70;;;;;;5154678;27;19926;-69
2022/06/24 05:33:20;;;;;;;;;;;38.60;45.00;;;;;;5154363;27;19903;-70
2022/06/24 05:35:45;;;;;;;;;;;39.10;44.30;;;;;;5154284;27;19926;-69
2022/06/24 05:38:11;;;;;;;;;;;39.20;43.80;;;;;;5155004;27;19963;-69
2022/06/24 05:40:37;;;;;;;;;;;40.00;43.60;;;;;;5154606;27;20215;-69
2022/06/24 05:43:03;;;;;;;;;;;40.60;43.00;;;;;;5154986;27;19994;-69
2022/06/24 05:45:28;;;;;;;;;;;40.30;43.10;;;;;;5154814;27;20375;-69
2022/06/24 05:47:54;;;;;;;;;;;39.70;43.10;;;;;;5154823;27;19915;-69
2022/06/24 05:50:20;;;;;;;;;;;38.50;43.70;;;;;;5154047;27;19950;-68
2022/06/24 05:55:30;;;;;;;;;;;38.10;44.90;;;;;;5154024;27;20031;-69
2022/06/24 05:57:56;;;;;;;;;;;38.60;44.40;;;;;;5153524;27;19948;-69
2022/06/24 06:00:21;;;;;;;;;;;39.50;43.90;;;;;;5153834;27;19907;-69
2022/06/24 06:02:47;;;;;;;;;;;40.10;43.50;;;;;;5154026;27;19993;-69
2022/06/24 06:05:13;;;;;;;;;;;40.40;42.90;;;;;;5153807;27;19911;-69
2022/06/24 06:07:39;;;;;;;;;;;40.30;43.20;;;;;;5154450;27;19936;-69
2022/06/24 06:10:05;;;;;;;;;;;39.00;44.00;;;;;;5154170;27;19956;-69
2022/06/24 06:12:33;;;;;;;;;;;38.60;44.90;;;;;;5154074;27;20385;-69
2022/06/24 06:14:59;;;;;;;;;;;38.70;45.00;;;;;;5154179;27;19903;-69
2022/06/24 06:17:24;;;;;;;;;;;39.10;44.70;;;;;;5154315;27;19903;-69
2022/06/24 06:19:50;;;;;;;;;;;38.80;44.30;;;;;;5154016;27;19903;-69
2022/06/24 06:22:16;;;;;;;;;;;38.90;45.20;;;;;;5154697;27;20311;-69
2022/06/24 06:24:43;;;;;;;;;;;39.20;45.30;;;;;;5154343;27;20085;-69
2022/06/24 06:27:09;;;;;;;;;;;40.30;44.60;;;;;;5154183;27;19911;-69
2022/06/24 06:29:35;;;;;;;;;;;41.80;43.30;;;;;;5154350;27;19910;-68
2022/06/24 06:32:00;;;;;;;;;;;42.70;42.20;;;;;;5154733;27;19903;-69
2022/06/24 06:34:26;;;;;;;;;;;43.50;42.10;;;;;;5152638;27;19930;-69
2022/06/24 06:36:52;;;;;;;;;;;44.30;41.60;;;;;;5153928;27;19910;-69
2022/06/24 06:39:18;;;;;;;;;;;45.50;40.60;;;;;;5152596;27;19971;-69
2022/06/24 06:41:46;;;;;;;;;;;46.40;39.60;;;;;;5154123;27;20244;-69
2022/06/24 06:44:13;;;;;;;;;;;47.30;38.70;;;;;;5153821;27;19965;-69
2022/06/24 06:46:39;;;;;;;;;;;48.00;38.10;;;;;;5157023;27;19954;-69
2022/06/24 06:49:05;;;;;;;;;;;48.60;37.50;;;;;;5157731;27;19910;-69
2022/06/24 06:51:31;;;;;;;;;;;48.90;37.00;;;;;;5157632;27;19994;-69
2022/06/24 06:53:57;;;;;;;;;;;49.00;37.40;;;;;;5157820;27;19951;-69
2022/06/24 06:56:23;;;;;;;;;;;49.00;37.20;;;;;;5157882;27;19903;-69
2022/06/24 06:58:49;;;;;;;;;;;49.10;36.30;;;;;;5157463;27;19907;-69
2022/06/24 07:01:14;;;;;;;;;;;48.70;36.90;;;;;;5157435;27;20314;-69
2022/06/24 07:03:40;;;;;;;;;;;48.60;37.10;;;;;;5157772;27;19910;-69
2022/06/24 07:06:06;;;;;;;;;;;48.80;37.00;;;;;;5157144;27;19932;-69
2022/06/24 07:08:32;;;;;;;;;;;49.00;36.70;;;;;;5157830;27;19994;-69
2022/06/24 07:10:58;;;;;;;;;;;49.00;36.30;;;;;;5157632;27;19993;-69
2022/06/24 07:13:24;;;;;;;;;;;48.60;36.80;;;;;;5157216;27;19993;-69
2022/06/24 07:15:49;;;;;;;;;;;48.00;36.70;;;;;;5157292;27;19929;-68
2022/06/24 07:18:15;;;;;;;;;;;47.20;37.30;;;;;;5157339;27;19926;-69
2022/06/24 07:20:42;;;;;;;;;;;46.40;38.20;;;;;;5157048;27;20392;-69
2022/06/24 07:23:08;;;;;;;;;;;46.20;39.00;;;;;;5155713;27;20014;-69
2022/06/24 07:25:34;;;;;;;;;;;45.80;39.50;;;;;;5156943;27;20378;-69
2022/06/24 07:28:00;;;;;;;;;;;45.30;40.30;;;;;;5157318;27;20400;-69
2022/06/24 07:30:26;;;;;;;;;;;44.50;40.70;;;;;;5157070;27;19910;-68
2022/06/24 07:32:52;;;;;;;;;;;44.10;41.60;;;;;;5156744;27;19943;-69
2022/06/24 07:35:18;;;;;;;;;;;43.60;42.50;;;;;;5157259;27;19969;-69
2022/06/24 07:37:44;;;;;;;;;;;43.30;42.80;;;;;;5156836;27;19903;-68
2022/06/24 07:40:10;;;;;;;;;;;42.90;43.60;;;;;;5156601;27;19903;-68
2022/06/24 07:42:36;;;;;;;;;;;42.10;44.30;;;;;;5157093;27;20014;-68
2022/06/24 07:45:02;;;;;;;;;;;41.80;45.30;;;;;;5156678;27;19903;-68
2022/06/24 07:47:28;;;;;;;;;;;40.90;46.00;;;;;;5156296;27;19926;-68
2022/06/24 07:49:53;;;;;;;;;;;40.90;46.10;;;;;;5156880;27;19903;-68
2022/06/24 07:52:19;;;;;;;;;;;40.90;47.10;;;;;;5156144;27;19903;-68
2022/06/24 07:54:45;;;;;;;;;;;40.70;46.70;;;;;;5156051;27;19930;-69
2022/06/24 07:57:11;;;;;;;;;;;40.50;47.00;;;;;;5154934;27;20134;-69
2022/06/24 07:59:37;;;;;;;;;;;40.30;47.00;;;;;;5155649;27;19903;-69
2022/06/24 08:02:04;;;;;;;;;;;40.20;47.20;;;;;;5156219;27;20399;-69
2022/06/24 08:04:30;;;;;;;;;;;39.50;47.20;;;;;;5155487;27;19907;-69
2022/06/24 08:06:57;;;;;;;;;;;39.40;47.80;;;;;;5155130;27;20422;-69
2022/06/24 08:09:27;;;;;;;;;;;39.40;47.60;;;;;;5155212;27;19903;-69
2022/06/24 08:11:53;;;;;;;;;;;39.00;48.40;;;;;;5155358;27;19903;-69
2022/06/24 08:14:20;;;;;;;;;;;38.90;48.90;;;;;;5155338;27;19942;-68
2022/06/24 08:16:46;;;;;;;;;;;39.10;48.80;;;;;;5155517;27;19914;-68
2022/06/24 08:19:12;;;;;;;;;;;38.80;49.50;;;;;;5156258;27;19940;-69
2022/06/24 08:21:37;;;;;;;;;;;38.80;50.00;;;;;;5156610;27;19910;-70
2022/06/24 08:24:04;;;;;;;;;;;38.80;49.70;;;;;;5155746;27;19906;-70
2022/06/24 08:26:30;;;;;;;;;;;38.70;50.80;;;;;;5155882;27;19911;-69
2022/06/24 08:28:56;;;;;;;;;;;38.70;51.20;;;;;;5156370;27;19903;-67
2022/06/24 08:31:22;;;;;;;;;;;38.70;50.60;;;;;;5155469;27;19910;-67
2022/06/24 08:33:47;;;;;;;;;;;38.70;50.20;;;;;;5155932;27;19903;-67
2022/06/24 08:36:13;;;;;;;;;;;38.50;50.70;;;;;;5154271;27;19903;-70
2022/06/24 08:38:39;;;;;;;;;;;38.40;50.60;;;;;;5156117;27;19903;-67
2022/06/24 08:41:05;;;;;;;;;;;38.40;50.30;;;;;;5155310;27;19906;-69
2022/06/24 08:43:32;;;;;;;;;;;38.50;50.60;;;;;;5155261;27;19910;-70
2022/06/24 08:45:58;;;;;;;;;;;38.10;50.70;;;;;;5155298;27;19903;-69
2022/06/24 08:48:28;;;;;;;;;;;38.30;51.60;;;;;;5155370;27;20243;-70
2022/06/24 08:50:54;;;;;;;;;;;38.50;51.70;;;;;;5155248;27;20283;-69
2022/06/24 08:53:22;;;;;;;;;;;38.70;51.10;;;;;;5154936;27;20366;-67
2022/06/24 08:55:50;;;;;;;;;;;38.90;51.00;;;;;;5154480;27;19910;-67
2022/06/24 08:58:17;;;;;;;;;;;38.90;51.00;;;;;;5154465;27;19910;-68
2022/06/24 09:00:43;;;;;;;;;;;38.90;50.90;;;;;;5154742;27;19947;-68
2022/06/24 09:03:09;;;;;;;;;;;39.00;51.30;;;;;;5155246;27;19947;-68
2022/06/24 09:05:36;;;;;;;;;;;38.60;52.40;;;;;;5154407;27;19919;-68
2022/06/24 09:08:05;;;;;;;;;;;38.60;51.60;;;;;;5154701;27;19911;-69
2022/06/24 09:10:31;;;;;;;;;;;38.60;51.90;;;;;;5154838;27;19910;-68
2022/06/24 09:12:57;;;;;;;;;;;38.20;52.90;;;;;;5154994;27;19910;-68
2022/06/24 09:15:23;;;;;;;;;;;38.40;52.90;;;;;;5154760;27;19903;-68
2022/06/24 09:17:49;;;;;;;;;;;38.50;52.70;;;;;;5154280;27;19903;-68
2022/06/24 09:20:25;;;;;;;;;;;38.20;53.50;;;;;;5154205;27;19994;-68
2022/06/24 09:23:01;;;;;;;;;;;37.90;54.00;;;;;;5152492;27;19903;-68
2022/06/24 09:25:27;;;;;;;;;;;37.60;55.20;;;;;;5154469;27;19955;-68
2022/06/24 09:27:52;;;;;;;;;;;37.70;55.60;;;;;;5154253;27;19952;-68
2022/06/24 09:30:18;;;;;;;;;;;38.00;55.10;;;;;;5154618;27;20005;-68
2022/06/24 09:32:53;;;;;;;;;;;38.20;55.00;;;;;;5154119;27;19903;-68
2022/06/24 09:35:20;;;;;;;;;;;38.20;54.90;;;;;;5154294;27;19993;-68
2022/06/24 09:37:47;;;;;;;;;;;38.30;54.70;;;;;;5154264;27;19909;-68
2022/06/24 09:40:13;;;;;;;;;;;38.30;54.10;;;;;;5153935;27;19903;-68
2022/06/24 09:42:39;;;;;;;;;;;38.20;53.70;;;;;;5154269;27;20254;-68
2022/06/24 09:45:05;;;;;;;;;;;38.20;53.30;;;;;;5153818;27;19907;-68
2022/06/24 09:47:30;;;;;;;;;;;37.90;52.40;;;;;;5154108;27;19918;-68
2022/06/24 09:49:56;;;;;;;;;;;37.80;52.80;;;;;;5153744;27;19903;-68
2022/06/24 09:52:24;;;;;;;;;;;37.80;53.10;;;;;;5153593;27;19954;-68
2022/06/24 09:54:49;;;;;;;;;;;37.50;53.10;;;;;;5153645;27;19955;-68
2022/06/24 09:57:16;;;;;;;;;;;37.30;53.70;;;;;;5154361;27;20005;-68
2022/06/24 10:02:27;;;;;;;;;;;36.80;55.70;;;;;;5154219;27;19910;-68
2022/06/24 10:04:54;;;;;;;;;;;36.30;55.70;;;;;;5153181;27;19903;-69
2022/06/24 10:07:24;;;;;;;;;;;36.20;55.40;;;;;;5153594;27;19918;-68
2022/06/24 10:09:50;;;;;;;;;;;35.80;56.90;;;;;;5153878;27;19903;-68
2022/06/24 10:12:17;;;;;;;;;;;35.60;58.10;;;;;;5154145;27;20006;-68
2022/06/24 10:14:43;;;;;;;;;;;35.50;59.30;;;;;;5153757;27;20326;-68
2022/06/24 10:17:09;;;;;;;;;;;35.60;59.40;;;;;;5154068;27;19913;-68
2022/06/24 10:19:36;;;;;;;;;;;35.70;58.40;;;;;;5154084;27;19994;-68
2022/06/24 10:22:02;;;;;;;;;;;35.90;58.50;;;;;;5157607;27;20265;-68
2022/06/24 10:24:38;;;;;;;;;;;36.00;58.40;;;;;;5158010;27;19903;-68
2022/06/24 10:27:04;;;;;;;;;;;36.20;58.80;;;;;;5157905;27;20301;-69
2022/06/24 10:29:31;;;;;;;;;;;36.30;58.90;;;;;;5157776;27;19979;-68
2022/06/24 10:31:59;;;;;;;;;;;36.10;58.70;;;;;;5157751;27;20001;-68
2022/06/24 10:34:28;;;;;;;;;;;36.10;58.80;;;;;;5157824;27;19910;-68
2022/06/24 10:36:57;;;;;;;;;;;36.20;60.30;;;;;;5157428;27;19903;-69
2022/06/24 10:39:24;;;;;;;;;;;36.00;59.90;;;;;;5157490;27;19938;-68
2022/06/24 10:42:03;;;;;;;;;;;36.10;59.20;;;;;;5157541;27;19903;-68
2022/06/24 10:44:33;;;;;;;;;;;36.10;59.30;;;;;;5157246;27;19956;-69
2022/06/24 10:47:05;;;;;;;;;;;36.30;59.80;;;;;;5157307;27;19911;-68
2022/06/24 10:49:49;;;;;;;;;;;36.30;60.10;;;;;;5157562;27;19910;-68
2022/06/24 10:52:33;;;;;;;;;;;36.30;61.00;;;;;;5155798;27;19955;-68
2022/06/24 10:55:15;;;;;;;;;;;36.00;61.30;;;;;;5156287;27;19903;-69
2022/06/24 10:57:41;;;;;;;;;;;35.80;62.60;;;;;;5156420;27;19919;-68
2022/06/24 11:00:13;;;;;;;;;;;35.80;62.30;;;;;;5156194;27;19914;-68
2022/06/24 11:02:39;;;;;;;;;;;35.90;62.50;;;;;;5156696;27;19946;-68
2022/06/24 11:05:07;;;;;;;;;;;35.80;62.90;;;;;;5155920;27;19942;-68
2022/06/24 11:07:33;;;;;;;;;;;36.00;61.90;;;;;;5155831;27;19911;-69
2022/06/24 11:09:59;;;;;;;;;;;35.90;62.30;;;;;;5156079;27;19963;-69
2022/06/24 11:12:29;;;;;;;;;;;36.10;62.50;;;;;;5156398;27;19907;-70
2022/06/24 11:14:55;;;;;;;;;;;36.10;61.10;;;;;;5156130;27;20284;-69
2022/06/24 11:17:26;;;;;;;;;;;36.10;59.50;;;;;;5156922;27;20051;-69
2022/06/24 11:19:52;;;;;;;;;;;36.10;61.40;;;;;;5156594;27;19980;-69
2022/06/24 11:22:19;;;;;;;;;;;36.20;60.60;;;;;;5156629;27;20380;-69
2022/06/24 11:24:47;;;;;;;;;;;36.20;60.10;;;;;;5156628;27;19903;-69
2022/06/24 11:27:13;;;;;;;;;;;36.20;59.70;;;;;;5156501;27;19911;-69
2022/06/24 11:29:52;;;;;;;;;;;36.40;58.90;;;;;;5156745;27;19903;-68
2022/06/24 11:32:18;;;;;;;;;;;36.40;57.70;;;;;;5155473;27;19903;-69
2022/06/24 11:34:45;;;;;;;;;;;36.60;57.20;;;;;;5157076;27;20467;-70
2022/06/24 11:37:11;;;;;;;;;;;36.60;56.40;;;;;;5157012;27;19910;-69
2022/06/24 11:39:37;;;;;;;;;;;36.80;56.40;;;;;;5156797;27;19910;-69
2022/06/24 11:42:03;;;;;;;;;;;37.00;55.90;;;;;;5157197;27;19902;-69
2022/06/24 11:44:35;;;;;;;;;;;37.30;54.10;;;;;;5156881;27;20269;-69
2022/06/24 11:47:01;;;;;;;;;;;37.50;53.00;;;;;;5156794;27;19950;-69
2022/06/24 11:49:29;;;;;;;;;;;37.60;51.60;;;;;;5156535;27;19903;-69
2022/06/24 11:51:55;;;;;;;;;;;37.80;51.40;;;;;;5157044;27;19990;-69
2022/06/24 11:54:25;;;;;;;;;;;37.80;50.20;;;;;;5156494;27;19941;-69
2022/06/24 11:56:50;;;;;;;;;;;37.80;50.60;;;;;;5156146;27;20020;-69
2022/06/24 11:59:19;;;;;;;;;;;37.60;50.50;;;;;;5155913;27;19903;-69
2022/06/24 12:01:45;;;;;;;;;;;37.60;50.80;;;;;;5155831;27;19906;-70
2022/06/24 12:04:12;;;;;;;;;;;37.80;50.50;;;;;;5155897;27;19909;-69
2022/06/24 12:06:38;;;;;;;;;;;37.70;50.20;;;;;;5155487;27;20377;-69
2022/06/24 12:09:05;;;;;;;;;;;37.70;50.50;;;;;;5156213;27;20319;-69
2022/06/24 12:11:36;;;;;;;;;;;37.50;50.70;;;;;;5155868;27;19990;-69
2022/06/24 12:14:03;;;;;;;;;;;37.30;51.50;;;;;;5156183;27;19910;-69
2022/06/24 12:16:49;;;;;;;;;;;37.10;52.70;;;;;;5154328;27;20372;-69
2022/06/24 12:19:15;;;;;;;;;;;36.90;54.40;;;;;;5155482;27;19919;-69
2022/06/24 12:21:41;;;;;;;;;;;37.00;54.10;;;;;;5155794;27;19903;-69
2022/06/24 12:24:20;;;;;;;;;;;36.90;55.80;;;;;;5155290;27;20014;-69
2022/06/24 12:26:46;;;;;;;;;;;36.80;55.90;;;;;;5155060;27;19951;-68
2022/06/24 12:29:12;;;;;;;;;;;36.80;56.60;;;;;;5155298;27;20028;-69
2022/06/24 12:31:38;;;;;;;;;;;36.70;57.70;;;;;;5153628;27;19903;-69
2022/06/24 12:34:04;;;;;;;;;;;36.70;58.20;;;;;;5155054;27;19907;-69
2022/06/24 12:36:41;;;;;;;;;;;36.80;58.00;;;;;;5155592;27;19994;-69
2022/06/24 12:39:08;;;;;;;;;;;36.90;57.80;;;;;;5155135;27;20215;-69
2022/06/24 12:41:43;;;;;;;;;;;37.00;58.30;;;;;;5155185;27;19910;-69
2022/06/24 12:44:09;;;;;;;;;;;37.00;58.00;;;;;;5154619;27;19911;-69
2022/06/24 12:46:34;;;;;;;;;;;36.90;57.40;;;;;;5155001;27;19954;-69
2022/06/24 12:51:46;;;;;;;;;;;36.80;56.00;;;;;;5155564;27;19910;-69
2022/06/24 12:54:12;;;;;;;;;;;36.90;55.70;;;;;;5155550;27;19903;-69
2022/06/24 12:56:38;;;;;;;;;;;37.10;56.20;;;;;;5154846;27;19972;-69
2022/06/24 12:59:04;;;;;;;;;;;37.20;56.60;;;;;;5154681;27;20002;-69
2022/06/24 13:01:31;;;;;;;;;;;37.30;56.90;;;;;;5154341;27;19926;-70
2022/06/24 13:03:58;;;;;;;;;;;37.30;56.60;;;;;;5155237;27;19929;-69
2022/06/24 13:06:24;;;;;;;;;;;37.40;55.90;;;;;;5154393;27;19915;-69
2022/06/24 13:08:49;;;;;;;;;;;37.50;56.70;;;;;;5154545;27;19903;-69
2022/06/24 13:11:15;;;;;;;;;;;37.60;56.00;;;;;;5154562;27;19911;-69
2022/06/24 13:13:41;;;;;;;;;;;37.40;56.70;;;;;;5154930;27;19991;-69
2022/06/24 13:16:07;;;;;;;;;;;37.30;56.30;;;;;;5155002;27;19990;-70
2022/06/24 13:18:33;;;;;;;;;;;36.90;55.80;;;;;;5153291;27;20370;-68
2022/06/24 13:20:58;;;;;;;;;;;37.00;56.00;;;;;;5155188;27;20001;-68
2022/06/24 13:23:24;;;;;;;;;;;37.20;55.70;;;;;;5154729;27;19909;-69
2022/06/24 13:25:50;;;;;;;;;;;37.20;54.60;;;;;;5155109;27;19903;-69
2022/06/24 13:28:16;;;;;;;;;;;37.40;54.10;;;;;;5154687;27;19922;-70
2022/06/24 13:30:42;;;;;;;;;;;37.40;52.60;;;;;;5155127;27;19963;-68
2022/06/24 13:33:07;;;;;;;;;;;37.40;53.30;;;;;;5154610;27;19910;-68
2022/06/24 13:35:33;;;;;;;;;;;37.60;53.50;;;;;;5154882;27;19903;-69
2022/06/24 13:37:59;;;;;;;;;;;37.80;53.50;;;;;;5154575;27;19903;-68
2022/06/24 13:40:25;;;;;;;;;;;37.90;54.00;;;;;;5154593;27;19902;-68
2022/06/24 13:42:51;;;;;;;;;;;37.90;54.50;;;;;;5155035;27;19909;-68
2022/06/24 13:45:16;;;;;;;;;;;37.60;54.90;;;;;;5154659;27;19903;-68
2022/06/24 13:47:42;;;;;;;;;;;37.50;55.40;;;;;;5154412;27;20362;-68
2022/06/24 13:50:08;;;;;;;;;;;37.60;55.30;;;;;;5154553;27;19903;-68
2022/06/24 13:52:34;;;;;;;;;;;37.50;56.40;;;;;;5154447;27;20247;-68
2022/06/24 13:55:00;;;;;;;;;;;37.40;57.00;;;;;;5155009;27;19994;-68
2022/06/24 13:57:27;;;;;;;;;;;37.30;58.30;;;;;;5158297;27;19907;-68
2022/06/24 13:59:53;;;;;;;;;;;36.90;59.60;;;;;;5158301;27;20404;-69
2022/06/24 14:02:19;;;;;;;;;;;36.50;60.60;;;;;;5157945;27;19986;-69
2022/06/24 14:04:45;;;;;;;;;;;36.50;61.00;;;;;;5158080;27;20403;-69
2022/06/24 14:07:11;;;;;;;;;;;36.60;60.10;;;;;;5157760;27;19910;-69
2022/06/24 14:09:37;;;;;;;;;;;36.10;61.90;;;;;;5157881;27;19953;-69
2022/06/24 14:12:03;;;;;;;;;;;35.60;63.10;;;;;;5157919;27;19903;-70
2022/06/24 14:14:29;;;;;;;;;;;35.80;62.90;;;;;;5157799;27;19903;-69
2022/06/24 14:16:54;;;;;;;;;;;36.00;62.50;;;;;;5158160;27;19942;-69
2022/06/24 14:19:20;;;;;;;;;;;36.20;60.40;;;;;;5157648;27;19910;-69
2022/06/24 14:21:46;;;;;;;;;;;36.30;60.60;;;;;;5157633;27;19955;-69
2022/06/24 14:26:56;;;;;;;;;;;36.50;60.00;;;;;;5157532;27;19978;-69
2022/06/24 14:29:22;;;;;;;;;;;36.40;59.70;;;;;;5157781;27;19993;-69
2022/06/24 14:31:48;;;;;;;;;;;36.40;61.00;;;;;;5155999;27;19947;-69